Time;durP1;ratioP1;P1;durP2;ratioP2;P2;SDS_P1;SDS_P2;PMS_P1;PMS_P2;Temp;Humidity;BMP_temperature;BMP_pressure;BME280_temperature;BME280_humidity;BME280_pressure;Samples;Min_cycle;Max_cycle;Signal;HPM_P1;HPM_P2
2023/03/04 00:02:26;;;;;;;58.20;33.37;;;;;;;;;;4964650;28;20326;-74
2023/03/04 00:04:53;;;;;;;65.60;35.20;;;;;;;;;;4961762;28;20241;-76
2023/03/04 00:07:21;;;;;;;63.33;35.20;;;;;;;;;;4995738;28;20204;-76
2023/03/04 00:09:48;;;;;;;64.23;34.10;;;;;;;;;;4979983;28;20214;-76
2023/03/04 00:12:15;;;;;;;64.37;34.93;;;;;;;;;;4985916;28;20228;-77
2023/03/04 00:14:42;;;;;;;61.00;33.53;;;;;;;;;;4996506;28;20934;-77
2023/03/04 00:17:09;;;;;;;61.10;33.63;;;;;;;;;;4987211;28;20214;-76
2023/03/04 00:19:37;;;;;;;64.40;34.47;;;;;;;;;;4982602;28;20229;-77
2023/03/04 00:22:04;;;;;;;60.73;35.20;;;;;;;;;;4985220;28;20226;-77
2023/03/04 00:24:31;;;;;;;58.67;34.07;;;;;;;;;;4991221;28;20390;-78
2023/03/04 00:26:59;;;;;;;61.80;35.17;;;;;;;;;;4994269;28;20234;-77
2023/03/04 00:29:26;;;;;;;61.20;34.73;;;;;;;;;;4984144;28;20300;-77
2023/03/04 00:31:53;;;;;;;63.57;34.90;;;;;;;;;;4974191;28;20717;-77
2023/03/04 00:34:21;;;;;;;62.67;34.43;;;;;;;;;;4958744;28;20225;-76
2023/03/04 00:36:48;;;;;;;59.90;33.80;;;;;;;;;;4977111;28;20230;-77
2023/03/04 00:39:15;;;;;;;60.80;34.63;;;;;;;;;;4964883;28;20787;-78
2023/03/04 00:41:43;;;;;;;63.60;34.43;;;;;;;;;;4969167;28;20229;-76
2023/03/04 00:44:10;;;;;;;64.00;34.70;;;;;;;;;;4964434;28;20354;-77
2023/03/04 00:46:38;;;;;;;60.43;34.37;;;;;;;;;;4962764;28;20224;-75
2023/03/04 00:49:06;;;;;;;69.77;36.27;;;;;;;;;;4969131;28;23211;-75
2023/03/04 00:51:33;;;;;;;62.80;34.87;;;;;;;;;;4973680;28;20228;-76
2023/03/04 00:54:01;;;;;;;58.87;33.00;;;;;;;;;;4967092;28;20210;-77
2023/03/04 00:56:28;;;;;;;63.70;35.37;;;;;;;;;;4965839;28;20282;-76
2023/03/04 00:58:55;;;;;;;64.70;35.73;;;;;;;;;;4964726;28;20829;-76
2023/03/04 01:01:22;;;;;;;64.07;35.43;;;;;;;;;;4965719;28;20246;-76
2023/03/04 01:03:49;;;;;;;64.20;35.17;;;;;;;;;;4965731;28;20221;-76
2023/03/04 01:06:17;;;;;;;68.13;35.87;;;;;;;;;;4970408;28;20210;-75
2023/03/04 01:08:44;;;;;;;67.47;36.33;;;;;;;;;;4964358;28;20731;-78
2023/03/04 01:11:11;;;;;;;61.43;34.20;;;;;;;;;;4965488;28;20227;-77
2023/03/04 01:13:39;;;;;;;64.40;35.00;;;;;;;;;;4958686;28;20314;-75
2023/03/04 01:16:07;;;;;;;65.97;36.47;;;;;;;;;;4968283;28;20896;-77
2023/03/04 01:18:34;;;;;;;64.10;35.87;;;;;;;;;;4960128;28;20220;-77
2023/03/04 01:21:01;;;;;;;69.77;37.07;;;;;;;;;;4965740;28;20226;-76
2023/03/04 01:23:29;;;;;;;68.27;37.53;;;;;;;;;;4961756;28;20270;-75
2023/03/04 01:25:56;;;;;;;67.13;37.17;;;;;;;;;;4962715;28;20232;-77
2023/03/04 01:28:23;;;;;;;64.53;36.73;;;;;;;;;;4964031;28;20487;-78
2023/03/04 01:30:53;;;;;;;70.63;38.27;;;;;;;;;;4963464;28;20266;-77
2023/03/04 01:33:21;;;;;;;71.40;38.83;;;;;;;;;;4966960;28;20302;-75
2023/03/04 01:35:49;;;;;;;72.00;37.57;;;;;;;;;;4965492;28;20212;-77
2023/03/04 01:38:16;;;;;;;68.17;37.53;;;;;;;;;;4958676;28;20254;-76
2023/03/04 01:40:43;;;;;;;77.23;38.23;;;;;;;;;;4960019;28;20237;-77
2023/03/04 01:43:15;;;;;;;73.00;39.47;;;;;;;;;;4964256;28;20757;-77
2023/03/04 01:45:43;;;;;;;72.00;38.60;;;;;;;;;;4964811;28;20252;-75
2023/03/04 01:48:12;;;;;;;70.47;37.53;;;;;;;;;;4967997;28;20203;-76
2023/03/04 01:50:39;;;;;;;71.20;39.47;;;;;;;;;;4971645;28;20231;-76
2023/03/04 01:53:06;;;;;;;74.80;38.67;;;;;;;;;;4967700;28;20642;-75
2023/03/04 01:55:33;;;;;;;74.60;39.03;;;;;;;;;;4969157;28;21153;-78
2023/03/04 01:58:00;;;;;;;74.47;39.13;;;;;;;;;;4958761;28;20216;-75
2023/03/04 02:00:30;;;;;;;70.17;37.60;;;;;;;;;;4958551;28;20260;-76
2023/03/04 02:02:59;;;;;;;71.27;39.13;;;;;;;;;;4962279;28;20625;-76
2023/03/04 02:05:26;;;;;;;76.53;37.73;;;;;;;;;;4972540;28;20236;-77
2023/03/04 02:07:55;;;;;;;76.20;40.20;;;;;;;;;;4991810;28;20211;-77
2023/03/04 02:10:22;;;;;;;87.00;46.00;;;;;;;;;;4992758;28;20268;-77
2023/03/04 02:12:50;;;;;;;91.10;44.90;;;;;;;;;;4982653;28;20242;-77
2023/03/04 02:15:17;;;;;;;85.23;44.33;;;;;;;;;;4989146;28;20226;-76
2023/03/04 02:17:44;;;;;;;82.10;42.13;;;;;;;;;;4975817;28;20224;-75
2023/03/04 02:20:16;;;;;;;80.77;42.67;;;;;;;;;;4957301;28;20242;-77
2023/03/04 02:22:49;;;;;;;79.50;42.07;;;;;;;;;;4960113;28;20239;-75
2023/03/04 02:25:21;;;;;;;74.23;39.60;;;;;;;;;;4971362;28;20227;-76
2023/03/04 02:27:48;;;;;;;77.10;40.77;;;;;;;;;;4958295;28;20205;-76
2023/03/04 02:30:16;;;;;;;74.83;40.20;;;;;;;;;;4966312;28;20201;-77
2023/03/04 02:32:43;;;;;;;78.83;40.80;;;;;;;;;;4962503;28;20207;-76
2023/03/04 02:35:16;;;;;;;72.13;39.27;;;;;;;;;;4971600;28;20700;-76
2023/03/04 02:37:43;;;;;;;77.77;39.53;;;;;;;;;;4967243;28;20220;-76
2023/03/04 02:40:19;;;;;;;76.30;39.63;;;;;;;;;;4961519;28;20210;-77
2023/03/04 02:42:46;;;;;;;72.77;39.50;;;;;;;;;;4971516;28;20219;-76
2023/03/04 02:45:32;;;;;;;73.67;39.43;;;;;;;;;;4962005;28;20234;-77
2023/03/04 02:47:59;;;;;;;69.30;38.57;;;;;;;;;;4963410;28;20210;-77
2023/03/04 02:50:29;;;;;;;73.27;39.67;;;;;;;;;;4965499;28;20236;-76
2023/03/04 02:52:56;;;;;;;73.47;39.83;;;;;;;;;;4965509;28;20202;-76
2023/03/04 02:55:23;;;;;;;73.83;39.00;;;;;;;;;;4965301;28;20779;-77
2023/03/04 02:57:50;;;;;;;77.77;40.33;;;;;;;;;;4979895;28;20642;-77
2023/03/04 03:00:18;;;;;;;75.07;39.87;;;;;;;;;;4972345;28;20780;-77
2023/03/04 03:02:45;;;;;;;71.40;37.97;;;;;;;;;;4976689;28;20609;-77
2023/03/04 03:05:13;;;;;;;68.80;38.10;;;;;;;;;;4974505;28;20241;-77
2023/03/04 03:07:41;;;;;;;66.67;36.60;;;;;;;;;;4971934;28;20234;-76
2023/03/04 03:10:08;;;;;;;71.83;38.17;;;;;;;;;;4964662;28;20206;-78
2023/03/04 03:12:36;;;;;;;79.27;37.93;;;;;;;;;;4968087;28;20220;-77
2023/03/04 03:15:04;;;;;;;68.80;37.40;;;;;;;;;;4966780;28;20269;-78
2023/03/04 03:17:31;;;;;;;68.60;36.47;;;;;;;;;;4970801;28;20214;-75
2023/03/04 03:19:58;;;;;;;76.80;37.30;;;;;;;;;;4962312;28;20222;-76
2023/03/04 03:22:25;;;;;;;67.37;36.60;;;;;;;;;;4968173;28;23169;-76
2023/03/04 03:24:53;;;;;;;77.73;38.87;;;;;;;;;;4969134;28;20256;-78
2023/03/04 03:27:20;;;;;;;77.57;40.40;;;;;;;;;;4967442;28;20220;-77
2023/03/04 03:29:47;;;;;;;69.77;36.93;;;;;;;;;;4976468;28;20211;-76
2023/03/04 03:32:14;;;;;;;70.80;38.10;;;;;;;;;;4963714;28;20288;-76
2023/03/04 03:34:42;;;;;;;67.10;37.43;;;;;;;;;;4973555;28;20217;-76
2023/03/04 03:37:09;;;;;;;67.53;36.37;;;;;;;;;;4974572;28;20301;-76
2023/03/04 03:39:36;;;;;;;71.97;36.93;;;;;;;;;;4969588;28;20638;-76
2023/03/04 03:42:03;;;;;;;74.10;37.87;;;;;;;;;;4975591;28;20228;-78
2023/03/04 03:44:31;;;;;;;69.90;37.30;;;;;;;;;;4967778;28;20755;-76
2023/03/04 03:46:58;;;;;;;68.30;36.63;;;;;;;;;;4973290;28;20209;-78
2023/03/04 03:49:25;;;;;;;73.53;38.63;;;;;;;;;;4972685;28;20204;-75
2023/03/04 03:51:52;;;;;;;71.50;36.47;;;;;;;;;;4971883;28;20640;-77
2023/03/04 03:54:19;;;;;;;71.70;36.57;;;;;;;;;;4968997;28;20217;-76
2023/03/04 03:56:47;;;;;;;75.43;39.70;;;;;;;;;;4975481;28;20208;-75
2023/03/04 03:59:14;;;;;;;68.57;37.27;;;;;;;;;;4970113;28;20727;-76
2023/03/04 04:01:41;;;;;;;73.53;39.00;;;;;;;;;;4975793;28;20226;-76
2023/03/04 04:04:09;;;;;;;80.73;41.50;;;;;;;;;;4971622;28;20208;-76
2023/03/04 04:06:36;;;;;;;78.07;40.47;;;;;;;;;;4978920;28;20571;-78
2023/03/04 04:09:03;;;;;;;76.60;39.87;;;;;;;;;;4983270;28;20206;-75
2023/03/04 04:11:30;;;;;;;76.97;41.03;;;;;;;;;;4990880;28;20230;-78
2023/03/04 04:13:57;;;;;;;73.63;40.13;;;;;;;;;;4996393;28;21817;-76
2023/03/04 04:16:25;;;;;;;77.63;39.40;;;;;;;;;;4987335;28;20221;-76
2023/03/04 04:18:52;;;;;;;68.53;37.77;;;;;;;;;;4981659;28;20259;-77
2023/03/04 04:21:20;;;;;;;70.27;38.03;;;;;;;;;;4978806;28;20250;-76
2023/03/04 04:23:47;;;;;;;73.40;39.13;;;;;;;;;;4985822;28;20208;-77
2023/03/04 04:26:14;;;;;;;73.23;38.07;;;;;;;;;;4988394;28;20303;-76
2023/03/04 04:28:41;;;;;;;74.67;37.93;;;;;;;;;;4970043;28;20803;-77
2023/03/04 04:31:09;;;;;;;81.80;41.17;;;;;;;;;;4959912;28;20231;-74
2023/03/04 04:33:36;;;;;;;70.93;40.10;;;;;;;;;;4965301;28;20222;-76
2023/03/04 04:36:04;;;;;;;77.37;39.17;;;;;;;;;;4968548;28;20316;-74
2023/03/04 04:38:31;;;;;;;74.33;40.00;;;;;;;;;;4956658;28;20224;-76
2023/03/04 04:40:59;;;;;;;79.63;39.87;;;;;;;;;;4966890;28;20226;-75
2023/03/04 04:43:26;;;;;;;74.03;40.47;;;;;;;;;;4960330;28;20209;-75
2023/03/04 04:45:53;;;;;;;77.97;41.10;;;;;;;;;;4960629;28;20229;-75
2023/03/04 04:48:21;;;;;;;74.30;39.97;;;;;;;;;;4965799;28;20210;-75
2023/03/04 04:50:53;;;;;;;77.77;39.83;;;;;;;;;;4966224;28;20223;-75
2023/03/04 04:53:20;;;;;;;81.17;41.27;;;;;;;;;;4963572;28;20216;-76
2023/03/04 04:55:48;;;;;;;82.30;41.70;;;;;;;;;;4970548;28;20209;-75
2023/03/04 04:58:15;;;;;;;81.33;41.10;;;;;;;;;;4962893;28;20208;-77
2023/03/04 05:00:42;;;;;;;87.07;42.23;;;;;;;;;;4964851;28;20233;-76
2023/03/04 05:03:09;;;;;;;79.70;40.57;;;;;;;;;;4960119;28;20225;-76
2023/03/04 05:05:36;;;;;;;80.70;40.83;;;;;;;;;;4974451;28;20233;-76
2023/03/04 05:08:04;;;;;;;82.10;38.47;;;;;;;;;;4960552;28;20232;-77
2023/03/04 05:10:32;;;;;;;76.20;40.00;;;;;;;;;;4962507;28;20236;-76
2023/03/04 05:12:59;;;;;;;77.10;38.67;;;;;;;;;;4964578;28;20217;-77
2023/03/04 05:15:26;;;;;;;71.90;38.63;;;;;;;;;;4964026;28;20220;-75
2023/03/04 05:17:53;;;;;;;77.70;38.83;;;;;;;;;;4957065;28;20332;-76
2023/03/04 05:20:22;;;;;;;78.67;39.57;;;;;;;;;;4959950;28;20217;-75
2023/03/04 05:22:49;;;;;;;81.17;39.40;;;;;;;;;;4967541;28;20331;-77
2023/03/04 05:25:17;;;;;;;78.50;42.00;;;;;;;;;;4960409;28;20237;-74
2023/03/04 05:27:44;;;;;;;75.43;40.30;;;;;;;;;;4966714;28;20211;-78
2023/03/04 05:30:11;;;;;;;85.73;43.63;;;;;;;;;;4964063;28;21785;-76
2023/03/04 05:32:39;;;;;;;78.73;42.90;;;;;;;;;;4963357;28;20215;-76
2023/03/04 05:35:06;;;;;;;79.70;42.03;;;;;;;;;;4959862;28;24804;-76
2023/03/04 05:37:33;;;;;;;79.50;41.07;;;;;;;;;;4953214;28;20205;-75
2023/03/04 05:40:00;;;;;;;70.17;37.57;;;;;;;;;;4959830;28;20216;-75
2023/03/04 05:42:28;;;;;;;69.33;37.30;;;;;;;;;;4956201;28;20320;-76
2023/03/04 05:44:55;;;;;;;73.33;37.10;;;;;;;;;;4964685;28;20205;-76
2023/03/04 05:47:22;;;;;;;69.23;36.67;;;;;;;;;;4959270;28;20241;-76
2023/03/04 05:49:49;;;;;;;73.43;38.53;;;;;;;;;;4973473;28;20197;-78
2023/03/04 05:52:16;;;;;;;74.73;38.47;;;;;;;;;;4965372;28;20228;-77
2023/03/04 05:54:44;;;;;;;79.20;39.50;;;;;;;;;;4969141;28;20803;-78
2023/03/04 05:57:11;;;;;;;95.60;49.90;;;;;;;;;;4967906;28;20598;-77
2023/03/04 05:59:38;;;;;;;93.93;45.47;;;;;;;;;;4977755;28;20697;-75
2023/03/04 06:02:05;;;;;;;83.63;42.27;;;;;;;;;;4967196;28;20232;-76
2023/03/04 06:04:33;;;;;;;80.40;40.67;;;;;;;;;;4976354;28;20295;-75
2023/03/04 06:07:00;;;;;;;83.83;39.63;;;;;;;;;;4981094;28;20586;-78
2023/03/04 06:09:27;;;;;;;70.63;38.23;;;;;;;;;;4981772;28;20221;-77
2023/03/04 06:11:54;;;;;;;79.47;38.30;;;;;;;;;;4979099;28;20710;-77
2023/03/04 06:14:21;;;;;;;75.00;37.00;;;;;;;;;;4985065;28;20204;-76
2023/03/04 06:16:49;;;;;;;70.07;37.87;;;;;;;;;;4976614;28;20239;-76
2023/03/04 06:19:16;;;;;;;81.13;39.73;;;;;;;;;;4975971;28;20225;-78
2023/03/04 06:21:45;;;;;;;80.20;39.20;;;;;;;;;;4971933;28;20238;-75
2023/03/04 06:24:12;;;;;;;79.90;39.83;;;;;;;;;;4970045;28;20299;-76
2023/03/04 06:26:40;;;;;;;74.40;38.47;;;;;;;;;;4968828;28;20222;-75
2023/03/04 06:29:09;;;;;;;78.67;40.43;;;;;;;;;;4972321;28;20268;-76
2023/03/04 06:31:37;;;;;;;77.63;40.43;;;;;;;;;;4970466;28;20244;-78
2023/03/04 06:34:04;;;;;;;81.43;40.60;;;;;;;;;;4974112;28;20295;-74
2023/03/04 06:36:31;;;;;;;76.97;40.27;;;;;;;;;;4975487;28;20347;-77
2023/03/04 06:38:59;;;;;;;74.40;39.37;;;;;;;;;;4967496;28;20220;-78
2023/03/04 06:41:26;;;;;;;75.87;40.07;;;;;;;;;;4969510;28;20505;-76
2023/03/04 06:43:54;;;;;;;76.30;39.47;;;;;;;;;;4967106;28;20847;-77
2023/03/04 06:46:21;;;;;;;85.17;42.53;;;;;;;;;;4972569;28;20239;-76
2023/03/04 06:48:48;;;;;;;93.00;43.50;;;;;;;;;;4970392;28;20310;-77
2023/03/04 06:51:15;;;;;;;81.90;41.20;;;;;;;;;;4970421;28;20250;-77
2023/03/04 06:53:43;;;;;;;85.30;42.83;;;;;;;;;;4969599;28;20470;-77
2023/03/04 06:56:11;;;;;;;83.63;43.90;;;;;;;;;;4972324;28;20212;-77
2023/03/04 06:58:38;;;;;;;85.07;42.93;;;;;;;;;;4966711;28;20847;-77
2023/03/04 07:01:16;;;;;;;78.70;42.17;;;;;;;;;;4968911;28;20226;-73
2023/03/04 07:03:44;;;;;;;82.57;42.67;;;;;;;;;;4969424;28;20206;-76
2023/03/04 07:06:12;;;;;;;77.13;40.90;;;;;;;;;;4966108;28;20580;-77
2023/03/04 07:08:39;;;;;;;86.03;42.20;;;;;;;;;;4969140;28;20232;-77
2023/03/04 07:11:07;;;;;;;81.67;41.77;;;;;;;;;;4968236;28;20231;-78
2023/03/04 07:13:37;;;;;;;79.70;40.33;;;;;;;;;;4972791;28;20208;-77
2023/03/04 07:16:05;;;;;;;78.83;40.77;;;;;;;;;;4970990;28;20213;-76
2023/03/04 07:18:32;;;;;;;81.83;41.37;;;;;;;;;;4966669;28;20224;-76
2023/03/04 07:20:59;;;;;;;70.73;38.53;;;;;;;;;;4973451;28;20330;-76
2023/03/04 07:23:26;;;;;;;76.70;40.90;;;;;;;;;;4971342;28;20310;-77
2023/03/04 07:25:54;;;;;;;79.77;39.80;;;;;;;;;;4971480;28;20225;-75
2023/03/04 07:28:21;;;;;;;78.77;40.50;;;;;;;;;;4966972;28;22778;-76
2023/03/04 07:30:48;;;;;;;73.70;39.43;;;;;;;;;;4967251;28;20246;-75
2023/03/04 07:33:15;;;;;;;78.53;40.53;;;;;;;;;;4966060;28;20819;-77
2023/03/04 07:35:43;;;;;;;71.67;37.37;;;;;;;;;;4962855;28;20203;-76
2023/03/04 07:38:10;;;;;;;71.97;37.73;;;;;;;;;;4964385;28;20221;-77
2023/03/04 07:40:37;;;;;;;66.87;37.03;;;;;;;;;;4961649;28;20359;-75
2023/03/04 07:43:05;;;;;;;71.37;36.40;;;;;;;;;;4969347;28;20203;-78
2023/03/04 07:45:32;;;;;;;67.27;35.13;;;;;;;;;;4973252;28;20299;-77
2023/03/04 07:48:00;;;;;;;68.37;36.07;;;;;;;;;;4973939;28;20706;-76
2023/03/04 07:50:27;;;;;;;71.13;36.60;;;;;;;;;;4970002;28;20223;-74
2023/03/04 07:52:54;;;;;;;71.80;37.30;;;;;;;;;;4968196;28;20286;-76
2023/03/04 07:55:21;;;;;;;71.53;37.47;;;;;;;;;;4970255;28;20299;-78
2023/03/04 07:57:49;;;;;;;72.57;37.50;;;;;;;;;;4972336;28;20216;-74
2023/03/04 08:00:16;;;;;;;79.73;39.20;;;;;;;;;;4975121;28;20215;-77
2023/03/04 08:02:43;;;;;;;65.53;35.50;;;;;;;;;;4964961;28;20216;-75
2023/03/04 08:05:11;;;;;;;73.67;38.67;;;;;;;;;;4970983;28;20236;-77
2023/03/04 08:07:38;;;;;;;80.80;40.03;;;;;;;;;;4976344;28;20242;-75
2023/03/04 08:10:06;;;;;;;78.20;40.43;;;;;;;;;;4986246;28;20673;-77
2023/03/04 08:12:35;;;;;;;80.10;40.83;;;;;;;;;;4981517;28;20202;-76
2023/03/04 08:15:03;;;;;;;75.70;39.67;;;;;;;;;;4973919;28;20209;-75
2023/03/04 08:17:30;;;;;;;69.80;36.53;;;;;;;;;;4978417;28;20211;-77
2023/03/04 08:19:57;;;;;;;68.30;36.77;;;;;;;;;;4978662;28;20215;-77
2023/03/04 08:22:24;;;;;;;71.70;37.57;;;;;;;;;;4971570;28;20883;-78
2023/03/04 08:24:51;;;;;;;74.37;38.37;;;;;;;;;;4974303;28;20296;-76
2023/03/04 08:27:18;;;;;;;70.37;36.70;;;;;;;;;;4978623;28;20739;-76
2023/03/04 08:29:46;;;;;;;73.37;38.10;;;;;;;;;;4984081;28;20214;-74
2023/03/04 08:32:13;;;;;;;77.03;40.27;;;;;;;;;;4973777;28;20307;-75
2023/03/04 08:34:40;;;;;;;73.83;39.50;;;;;;;;;;4976747;28;20218;-78
2023/03/04 08:37:07;;;;;;;73.10;38.20;;;;;;;;;;4977873;28;20214;-77
2023/03/04 08:39:36;;;;;;;72.87;38.03;;;;;;;;;;4980801;28;20292;-76
2023/03/04 08:42:03;;;;;;;75.77;38.87;;;;;;;;;;4970769;28;20267;-77
2023/03/04 08:44:30;;;;;;;69.53;38.47;;;;;;;;;;4969550;28;20230;-76
2023/03/04 08:46:58;;;;;;;65.93;36.87;;;;;;;;;;4974414;28;20224;-75
2023/03/04 08:49:25;;;;;;;72.07;37.20;;;;;;;;;;4973519;28;20222;-76
2023/03/04 08:51:52;;;;;;;63.10;36.17;;;;;;;;;;4968679;28;20723;-76
2023/03/04 08:54:19;;;;;;;72.93;36.90;;;;;;;;;;4971200;28;20587;-77
2023/03/04 08:56:46;;;;;;;67.30;36.47;;;;;;;;;;4979129;28;20232;-76
2023/03/04 08:59:13;;;;;;;67.03;37.17;;;;;;;;;;4976215;28;20216;-77
2023/03/04 09:01:44;;;;;;;68.53;35.53;;;;;;;;;;4973232;28;20229;-75
2023/03/04 09:04:11;;;;;;;63.00;34.23;;;;;;;;;;4977331;28;20224;-77
2023/03/04 09:06:39;;;;;;;66.40;35.57;;;;;;;;;;4969883;28;20327;-76
2023/03/04 09:09:06;;;;;;;62.60;35.03;;;;;;;;;;4965048;28;20219;-77
2023/03/04 09:11:33;;;;;;;66.03;34.97;;;;;;;;;;4963328;28;20234;-77
2023/03/04 09:14:00;;;;;;;69.53;35.97;;;;;;;;;;4976310;28;20585;-77
2023/03/04 09:16:27;;;;;;;62.00;34.37;;;;;;;;;;4973089;28;20307;-77
2023/03/04 09:18:55;;;;;;;62.77;35.07;;;;;;;;;;4968377;28;20629;-75
2023/03/04 09:21:22;;;;;;;59.67;33.80;;;;;;;;;;4970992;28;20228;-76
2023/03/04 09:23:49;;;;;;;60.33;33.70;;;;;;;;;;4969596;28;20213;-74
2023/03/04 09:26:26;;;;;;;60.43;34.20;;;;;;;;;;4974878;28;20314;-78
2023/03/04 09:28:55;;;;;;;62.40;32.90;;;;;;;;;;4971324;28;20207;-76
2023/03/04 09:31:23;;;;;;;59.90;33.83;;;;;;;;;;4968161;28;20227;-76
2023/03/04 09:33:51;;;;;;;58.77;31.77;;;;;;;;;;4970490;28;20749;-77
2023/03/04 09:36:18;;;;;;;57.40;32.10;;;;;;;;;;4977293;28;20287;-75
2023/03/04 09:38:46;;;;;;;57.07;32.40;;;;;;;;;;4969271;28;20250;-75
2023/03/04 09:41:25;;;;;;;58.87;32.53;;;;;;;;;;4964939;28;20223;-77
2023/03/04 09:43:53;;;;;;;50.27;29.77;;;;;;;;;;4970559;28;20204;-74
2023/03/04 09:46:35;;;;;;;53.60;30.80;;;;;;;;;;4966021;28;20243;-76
2023/03/04 09:49:02;;;;;;;51.70;29.10;;;;;;;;;;4972670;28;20207;-77
2023/03/04 09:51:36;;;;;;;53.67;29.97;;;;;;;;;;4960624;28;20239;-77
2023/03/04 09:54:07;;;;;;;56.97;30.90;;;;;;;;;;4950734;28;20260;-75
2023/03/04 09:56:37;;;;;;;55.57;30.03;;;;;;;;;;4944548;28;20212;-73
2023/03/04 09:59:07;;;;;;;53.73;30.03;;;;;;;;;;4949911;28;20209;-76
2023/03/04 10:01:52;;;;;;;56.00;28.27;;;;;;;;;;4950794;28;20237;-76
2023/03/04 10:04:34;;;;;;;52.63;28.63;;;;;;;;;;4936106;28;20236;-76
2023/03/04 10:07:02;;;;;;;52.73;28.57;;;;;;;;;;4952770;28;20714;-76
2023/03/04 10:09:42;;;;;;;50.53;28.53;;;;;;;;;;4954346;28;20205;-75
2023/03/04 10:12:14;;;;;;;47.80;27.83;;;;;;;;;;4967017;28;20310;-77
2023/03/04 10:14:50;;;;;;;51.70;28.97;;;;;;;;;;4963289;28;20219;-76
2023/03/04 10:17:23;;;;;;;51.67;29.63;;;;;;;;;;4966697;28;20705;-76
2023/03/04 10:19:56;;;;;;;52.10;29.23;;;;;;;;;;4968118;28;20236;-77
2023/03/04 10:22:23;;;;;;;54.33;29.43;;;;;;;;;;4962838;28;20236;-77
2023/03/04 10:24:53;;;;;;;58.63;30.60;;;;;;;;;;4967122;28;20221;-76
2023/03/04 10:27:22;;;;;;;59.73;31.20;;;;;;;;;;4964367;28;20240;-76
2023/03/04 10:29:50;;;;;;;51.47;28.70;;;;;;;;;;4980899;28;20635;-76
2023/03/04 10:32:18;;;;;;;47.67;28.13;;;;;;;;;;4989699;28;20242;-75
2023/03/04 10:34:45;;;;;;;47.87;28.33;;;;;;;;;;4982563;28;20204;-75
2023/03/04 10:37:13;;;;;;;47.63;27.63;;;;;;;;;;4989725;28;20210;-75
2023/03/04 10:39:41;;;;;;;45.77;26.40;;;;;;;;;;4991440;28;20290;-77
2023/03/04 10:42:14;;;;;;;50.17;28.90;;;;;;;;;;4968621;28;20247;-76
2023/03/04 10:44:55;;;;;;;49.93;28.10;;;;;;;;;;4943941;28;20213;-77
2023/03/04 10:47:24;;;;;;;51.90;27.93;;;;;;;;;;4944608;28;20232;-78
2023/03/04 10:49:53;;;;;;;49.07;27.30;;;;;;;;;;4945566;28;20211;-74
2023/03/04 10:52:27;;;;;;;50.13;27.57;;;;;;;;;;4941926;28;20237;-76
2023/03/04 10:54:58;;;;;;;47.47;27.03;;;;;;;;;;4942644;28;20538;-76
2023/03/04 10:57:39;;;;;;;57.97;29.83;;;;;;;;;;4936958;28;20225;-74
2023/03/04 11:00:09;;;;;;;50.43;28.57;;;;;;;;;;4952334;28;20590;-77
2023/03/04 11:02:37;;;;;;;51.53;28.50;;;;;;;;;;4958797;28;20216;-76
2023/03/04 11:05:07;;;;;;;53.03;28.33;;;;;;;;;;4952383;28;20212;-74
2023/03/04 11:07:42;;;;;;;50.17;26.87;;;;;;;;;;4961189;28;20238;-76
2023/03/04 11:10:28;;;;;;;44.63;26.73;;;;;;;;;;4942512;28;20212;-76
2023/03/04 11:12:59;;;;;;;51.43;27.57;;;;;;;;;;4931224;28;20204;-73
2023/03/04 11:15:27;;;;;;;49.97;29.27;;;;;;;;;;4929319;28;20211;-74
2023/03/04 11:17:58;;;;;;;45.67;25.53;;;;;;;;;;4954639;28;20235;-76
2023/03/04 11:20:38;;;;;;;41.87;24.43;;;;;;;;;;4946153;28;20212;-75
2023/03/04 11:23:14;;;;;;;42.00;24.37;;;;;;;;;;4959891;28;23777;-75
2023/03/04 11:25:47;;;;;;;52.90;26.10;;;;;;;;;;4954109;28;20251;-76
2023/03/04 11:28:20;;;;;;;49.20;26.37;;;;;;;;;;4946079;28;20867;-74
2023/03/04 11:30:50;;;;;;;44.13;23.87;;;;;;;;;;4958596;28;20474;-76
2023/03/04 11:33:17;;;;;;;46.23;25.83;;;;;;;;;;4955998;28;20212;-77
2023/03/04 11:35:49;;;;;;;50.33;25.30;;;;;;;;;;4953316;28;21725;-76
2023/03/04 11:38:21;;;;;;;44.17;24.93;;;;;;;;;;4963771;28;20216;-76
2023/03/04 11:40:48;;;;;;;44.13;23.93;;;;;;;;;;4958286;28;20302;-78
2023/03/04 11:43:24;;;;;;;43.87;24.23;;;;;;;;;;4962418;28;20216;-75
2023/03/04 11:46:01;;;;;;;40.07;24.33;;;;;;;;;;4960306;28;20221;-75
2023/03/04 11:48:29;;;;;;;40.93;23.67;;;;;;;;;;4968148;28;20236;-78
2023/03/04 11:51:15;;;;;;;44.13;23.63;;;;;;;;;;4977201;28;20303;-76
2023/03/04 11:53:51;;;;;;;44.03;25.13;;;;;;;;;;4972814;28;20207;-77
2023/03/04 11:56:24;;;;;;;43.87;24.33;;;;;;;;;;4980573;28;20352;-78
2023/03/04 11:58:51;;;;;;;43.10;24.70;;;;;;;;;;4975253;28;20211;-76
2023/03/04 12:01:18;;;;;;;41.97;23.67;;;;;;;;;;4979017;28;20310;-76
2023/03/04 12:03:58;;;;;;;42.00;23.00;;;;;;;;;;4979637;28;20600;-75
2023/03/04 12:06:28;;;;;;;39.80;23.67;;;;;;;;;;4975180;28;20258;-74
2023/03/04 12:09:14;;;;;;;41.93;24.57;;;;;;;;;;4974451;28;20216;-75
2023/03/04 12:11:42;;;;;;;43.60;25.57;;;;;;;;;;4959809;28;20237;-76
2023/03/04 12:14:18;;;;;;;40.57;23.57;;;;;;;;;;4986905;28;20260;-75
2023/03/04 12:16:51;;;;;;;35.03;19.87;;;;;;;;;;4972461;28;20573;-74
2023/03/04 12:19:37;;;;;;;35.20;20.73;;;;;;;;;;4976536;28;20218;-75
2023/03/04 12:22:24;;;;;;;38.70;22.27;;;;;;;;;;4973798;28;20232;-76
2023/03/04 12:24:52;;;;;;;46.03;24.73;;;;;;;;;;4978032;28;20196;-77
2023/03/04 12:27:19;;;;;;;40.57;22.20;;;;;;;;;;4969474;28;20229;-77
2023/03/04 12:29:56;;;;;;;38.10;21.30;;;;;;;;;;4971818;28;20761;-76
2023/03/04 12:32:34;;;;;;;38.70;21.93;;;;;;;;;;4975073;28;20228;-77
2023/03/04 12:35:13;;;;;;;38.07;21.47;;;;;;;;;;4971527;28;20204;-77
2023/03/04 12:37:53;;;;;;;42.33;22.03;;;;;;;;;;4971544;28;20204;-76
2023/03/04 12:40:29;;;;;;;40.33;21.27;;;;;;;;;;4969349;28;20263;-76
2023/03/04 12:43:08;;;;;;;39.40;22.40;;;;;;;;;;4973741;28;20230;-77
2023/03/04 12:45:41;;;;;;;39.83;22.73;;;;;;;;;;4985008;28;20218;-76
2023/03/04 12:48:32;;;;;;;40.70;20.97;;;;;;;;;;4978158;28;20232;-77
2023/03/04 12:51:07;;;;;;;40.33;22.10;;;;;;;;;;4978556;28;20278;-77
2023/03/04 12:54:04;;;;;;;36.50;20.67;;;;;;;;;;4989109;28;20200;-75
2023/03/04 12:56:38;;;;;;;38.83;21.13;;;;;;;;;;4972852;28;20678;-77
2023/03/04 12:59:06;;;;;;;41.70;22.13;;;;;;;;;;4976379;28;20248;-76
2023/03/04 13:01:33;;;;;;;39.10;20.90;;;;;;;;;;4975728;28;20227;-74
2023/03/04 13:04:14;;;;;;;36.70;20.43;;;;;;;;;;4975935;28;20215;-75
2023/03/04 13:07:10;;;;;;;35.53;20.30;;;;;;;;;;4973184;28;20196;-77
2023/03/04 13:09:48;;;;;;;35.30;19.87;;;;;;;;;;4970441;28;20213;-76
2023/03/04 13:12:22;;;;;;;38.83;19.97;;;;;;;;;;4988241;28;20322;-75
2023/03/04 13:15:12;;;;;;;37.33;20.87;;;;;;;;;;4973112;28;20238;-77
2023/03/04 13:17:42;;;;;;;36.70;19.60;;;;;;;;;;4968593;28;20292;-75
2023/03/04 13:20:13;;;;;;;37.93;21.73;;;;;;;;;;4978012;28;20308;-77
2023/03/04 13:22:40;;;;;;;35.83;19.97;;;;;;;;;;4969771;28;20553;-77
2023/03/04 13:25:26;;;;;;;35.63;20.37;;;;;;;;;;4986205;28;20204;-76
2023/03/04 13:28:02;;;;;;;36.27;19.63;;;;;;;;;;4967429;28;20235;-76
2023/03/04 13:30:38;;;;;;;35.27;19.63;;;;;;;;;;4969003;28;20737;-76
2023/03/04 13:33:12;;;;;;;32.53;18.50;;;;;;;;;;4963005;28;20573;-74
2023/03/04 13:35:48;;;;;;;38.67;22.33;;;;;;;;;;4971486;28;20213;-77
2023/03/04 13:38:29;;;;;;;34.10;19.77;;;;;;;;;;4972647;28;20222;-75
2023/03/04 13:40:59;;;;;;;36.37;19.70;;;;;;;;;;4971537;28;20234;-76
2023/03/04 13:43:38;;;;;;;30.80;18.33;;;;;;;;;;4969103;28;20239;-74
2023/03/04 13:46:18;;;;;;;34.53;19.60;;;;;;;;;;4976310;28;20256;-77
2023/03/04 13:48:51;;;;;;;32.50;19.10;;;;;;;;;;4975100;28;20271;-74
2023/03/04 13:51:30;;;;;;;36.77;20.60;;;;;;;;;;4976669;28;20309;-77
2023/03/04 13:53:58;;;;;;;34.23;19.17;;;;;;;;;;4982484;28;20210;-78
2023/03/04 13:56:25;;;;;;;33.83;19.53;;;;;;;;;;4971256;28;20213;-76
2023/03/04 13:59:12;;;;;;;34.27;19.93;;;;;;;;;;4970670;28;20215;-76
2023/03/04 14:01:42;;;;;;;38.57;21.63;;;;;;;;;;4976931;28;20231;-77
2023/03/04 14:04:17;;;;;;;35.57;20.10;;;;;;;;;;4979121;28;20303;-75
2023/03/04 14:06:57;;;;;;;39.43;22.50;;;;;;;;;;4970048;28;20231;-74
2023/03/04 14:09:28;;;;;;;36.17;19.47;;;;;;;;;;4972813;28;20212;-77
2023/03/04 14:12:01;;;;;;;34.00;19.00;;;;;;;;;;4976897;28;20283;-74
2023/03/04 14:14:30;;;;;;;34.73;20.67;;;;;;;;;;4980342;28;20702;-77
2023/03/04 14:16:59;;;;;;;37.20;21.17;;;;;;;;;;4975338;28;20197;-76
2023/03/04 14:19:32;;;;;;;34.67;20.40;;;;;;;;;;4977440;28;20307;-75
2023/03/04 14:22:00;;;;;;;31.90;19.53;;;;;;;;;;4982949;28;20224;-77
2023/03/04 14:24:29;;;;;;;33.17;20.23;;;;;;;;;;4970901;28;20599;-77
2023/03/04 14:27:09;;;;;;;30.53;19.03;;;;;;;;;;4975802;28;20737;-76
2023/03/04 14:29:37;;;;;;;32.47;20.13;;;;;;;;;;4965656;28;20207;-75
2023/03/04 14:32:05;;;;;;;54.27;35.07;;;;;;;;;;4972190;28;20324;-76